Terminal Aerodrome Forecast
Issued by NWS Memphis, TN

Home | Current Version | Previous Version | Text Only | Print | Product List | Glossary On
Versions: 1 2 3 4 5 6 7 8 9 10 11 12 13 14
000
FTUS44 KMEG 271128
TAFMKL
TAF
KMKL 271128Z 2712/2812 00000KT P6SM SKC
     FM271700 34009KT P6SM VCSH SCT025 OVC040
      TEMPO 2717/2721 6SM -SHRA BKN025
     FM280100 34007KT P6SM SKC
     FM280600 00000KT P6SM OVC100=

USA.gov is the U.S. government's official web portal to all federal, state and local government web resources and services.